Latest Weather Observations for Katanning RS

IDW60801

Issued at 5:53 pm WST Friday 16 November 2018 (issued every 10 minutes, with the page automatically refreshed every 10 minutes)

About weather observations | Map of weather stations | Latest weather observations for WA | Other Formats
Station Details ID: 010916 Name: KATANNING Lat: -33.69 Lon: 117.61 Height: 320.0 m
Data from the previous 72 hours. | See also: Recent months at Katanning RS
Date/Time
WST
Temp
°C
App
Temp
°C
Dew
Point
°C
Rel
Hum
%
Delta-T
°C
Wind Press
QNH
hPa
Press
MSL
hPa
Rain since
9am
mm
Dir  Spd
km/h
Gust
km/h
Spd
kts
Gust
kts
16/05:30pm 23.0 18.2 11.7 49 6.4 SE 28 39 15 21 1015.5 1014.7 0.0
16/05:00pm 23.6 19.5 11.3 46 7.0 SE 24 33 13 18 1015.3 1014.5 0.0
16/04:30pm 25.3 21.4 10.7 40 8.3 ESE 22 30 12 16 1015.5 1014.7 0.0
16/04:00pm 26.1 22.5 10.7 38 8.8 ESE 20 32 11 17 1015.8 1014.9 0.0
16/03:30pm 25.8 22.6 10.0 37 8.9 ESE 17 26 9 14 1015.9 1015.0 0.0
16/03:00pm 26.9 23.8 10.2 35 9.5 E 17 24 9 13 1016.3 1015.4 0.0
16/02:30pm 27.1 23.8 9.5 33 9.9 E 17 26 9 14 1016.3 1015.4 0.0
16/02:00pm 27.3 23.5 9.2 32 10.1 E 19 26 10 14 1016.3 1015.4 0.0
16/01:30pm 26.0 22.1 8.5 33 9.6 E 19 32 10 17 1016.6 1015.7 0.0
16/01:00pm 26.6 22.6 9.0 33 9.7 E 20 32 11 17 1016.8 1015.9 0.0
16/12:30pm 25.3 21.4 9.6 37 8.7 E 20 33 11 18 1017.3 1016.4 0.0
16/12:00pm 24.4 20.1 9.2 38 8.3 ESE 22 32 12 17 1017.8 1017.0 0.0
16/11:30am 23.5 19.1 8.8 39 8.0 E 22 33 12 18 1018.5 1017.7 0.0
16/11:00am 24.2 19.6 9.8 40 8.0 E 24 35 13 19 1019.3 1018.4 0.0
16/10:30am 22.9 18.6 9.3 42 7.4 E 22 32 12 17 1019.8 1018.9 0.0
16/10:00am 21.5 16.5 9.4 46 6.6 E 26 37 14 20 1019.9 1019.0 0.0
16/09:30am 20.3 16.0 9.2 49 6.0 ESE 22 32 12 17 1020.2 1019.4 0.0
16/09:00am 18.7 14.4 9.5 55 4.9 ESE 22 33 12 18 1020.4 1019.6 0.0
16/08:30am 18.1 13.8 9.5 57 4.6 ESE 22 37 12 20 1020.7 1019.9 0.0
16/08:00am 17.6 13.8 9.8 60 4.2 ESE 20 32 11 17 1021.1 1020.3 0.0
16/07:30am 16.3 12.1 9.7 65 3.5 ESE 22 33 12 18 1021.0 1020.2 0.0
16/07:00am 14.9 10.7 9.7 71 2.7 ESE 22 33 12 18 1020.6 1019.8 0.0
16/06:30am 14.4 9.7 9.4 72 2.6 ESE 24 35 13 19 1020.5 1019.7 0.0
16/06:00am 13.3 9.0 9.2 76 2.1 ESE 22 32 12 17 1020.8 1020.0 0.0
16/05:30am 12.6 8.8 8.9 78 1.9 ESE 19 28 10 15 1020.5 1019.7 0.0
16/05:00am 12.2 8.4 8.9 80 1.7 SE 19 26 10 14 1020.4 1019.6 0.0
16/04:30am 12.4 8.9 8.9 79 1.8 SE 17 24 9 13 1020.9 1020.1 0.0
16/04:00am 12.6 9.2 9.1 79 1.8 E 17 30 9 16 1021.0 1020.2 0.0
16/03:30am 12.4 8.4 8.9 79 1.8 ESE 20 32 11 17 1021.0 1020.2 0.0
16/03:00am 12.2 8.3 8.7 79 1.8 ESE 19 28 10 15 1021.1 1020.3 0.0
16/02:30am 12.0 7.9 8.8 81 1.6 ESE 20 30 11 16 1020.6 1019.8 0.0
16/02:00am 11.7 8.2 8.7 82 1.5 SE 17 22 9 12 1020.8 1020.0 0.0
16/01:30am 11.7 7.8 8.7 82 1.5 ESE 19 24 10 13 1020.8 1020.0 0.0
16/01:00am 11.9 8.4 8.9 82 1.5 ESE 17 24 9 13 1021.1 1020.3 0.0
16/12:30am 12.0 8.5 8.8 81 1.6 ESE 17 26 9 14 1021.3 1020.5 0.0
16/12:00am 12.3 8.5 9.0 80 1.7 ESE 19 28 10 15 1021.5 1020.7 0.0
 
Date/Time
WST
Temp
°C
App
Temp
°C
Dew
Point
°C
Rel
Hum
%
Delta-T
°C
Wind Press
QNH
hPa
Press
MSL
hPa
Rain since
9am
mm
Dir  Spd
km/h
Gust
km/h
Spd
kts
Gust
kts
15/11:30pm 12.6 8.8 8.9 78 1.9 ESE 19 26 10 14 1021.7 1020.9 0.0
15/11:00pm 12.9 9.1 9.0 77 2.0 ESE 19 28 10 15 1021.8 1021.0 0.0
15/10:30pm 13.2 9.4 9.1 76 2.1 ESE 19 28 10 15 1022.4 1021.5 0.0
15/10:00pm 13.5 9.1 9.0 74 2.3 ESE 22 32 12 17 1022.3 1021.4 0.0
15/09:30pm 14.1 9.9 8.3 68 3.0 ESE 20 30 11 16 1022.3 1021.4 0.0
15/09:00pm 14.8 10.4 7.6 62 3.6 ESE 20 30 11 16 1022.0 1021.2 0.0
15/08:30pm 15.8 10.5 8.5 62 3.8 ESE 26 35 14 19 1021.5 1020.7 0.0
15/08:00pm 17.4 12.9 8.5 56 4.6 SE 22 33 12 18 1021.2 1020.4 0.0
15/07:30pm 18.4 13.9 8.4 52 5.2 SSE 22 30 12 16 1020.8 1020.0 0.0
15/07:00pm 19.9 15.0 8.6 48 6.0 SE 24 32 13 17 1020.3 1019.5 0.0
15/06:30pm 21.3 16.1 8.9 45 6.7 SSE 26 35 14 19 1019.8 1018.9 0.0
15/06:00pm 22.5 17.2 8.6 41 7.5 SSE 26 39 14 21 1019.3 1018.4 0.0
15/05:30pm 24.3 18.6 8.3 36 8.7 SSE 28 39 15 21 1018.6 1017.8 0.0
15/05:00pm 26.3 20.3 8.8 33 9.6 SSE 30 39 16 21 1018.1 1017.3 0.0
15/04:30pm 28.1 23.1 7.9 28 11.1 S 24 33 13 18 1017.6 1016.8 0.0
15/04:00pm 28.6 23.5 6.1 24 12.0 S 22 35 12 19 1017.6 1016.8 0.0
15/03:30pm 30.1 26.0 6.1 22 12.9 SSE 17 32 9 17 1017.4 1016.5 0.0
15/03:00pm 30.4 27.2 4.9 20 13.4 S 11 24 6 13 1017.3 1016.4 0.0
15/02:30pm 30.4 26.0 4.9 20 13.5 SSE 17 28 9 15 1017.3 1016.4 0.0
15/02:00pm 30.7 27.7 5.9 21 13.3 SSW 11 22 6 12 1017.3 1016.4 0.0
15/01:30pm 30.6 26.3 5.1 20 13.5 SSW 17 28 9 15 1017.5 1016.7 0.0
15/01:00pm 29.8 26.0 5.8 22 12.8 SSW 15 28 8 15 1017.6 1016.8 0.0
15/12:30pm 30.4 26.5 7.0 23 12.8 S 17 32 9 17 1017.7 1016.9 0.0
15/12:00pm 30.7 27.3 7.8 24 12.7 WSW 15 28 8 15 1017.8 1017.0 0.0
15/11:30am 29.3 27.5 7.8 26 11.8 WNW 7 17 4 9 1018.2 1017.4 0.0
15/11:00am 28.4 25.9 8.1 28 11.2 SW 11 22 6 12 1018.5 1017.7 0.0
15/10:30am 27.7 26.2 9.0 31 10.4 WSW 7 15 4 8 1018.7 1017.9 0.0
15/10:00am 26.6 24.3 9.0 33 9.7 WNW 11 17 6 9 1019.0 1018.1 0.0
15/09:30am 25.0 24.0 8.9 36 8.8 WSW 4 9 2 5 1019.0 1018.1 0.0
15/09:00am 22.5 21.6 9.3 43 7.2 NW 4 9 2 5 1019.3 1018.4 0.0
15/08:30am 21.1 20.6 9.4 47 6.3 NNE 2 7 1 4 1019.2 1018.3 0.0
15/08:00am 18.9 18.5 9.7 55 4.9 NNE 2 6 1 3 1019.2 1018.3 0.0
15/07:30am 16.8 15.6 9.5 62 3.9 ENE 6 9 3 5 1018.8 1018.0 0.0
15/07:00am 14.7 13.7 8.9 68 3.0 ESE 4 6 2 3 1018.7 1017.9 0.0
15/06:30am 13.1 11.7 8.8 75 2.2 E 6 7 3 4 1018.5 1017.7 0.0
15/06:00am 11.0 8.9 8.1 82 1.4 SSE 9 11 5 6 1018.6 1017.8 0.0
15/05:30am 9.8 7.5 7.4 85 1.2 SSE 9 11 5 6 1018.3 1017.5 0.0
15/05:00am 9.6 7.8 7.2 85 1.2 SE 6 7 3 4 1018.0 1017.2 0.0
15/04:30am 10.3 8.6 7.7 84 1.3 ESE 6 9 3 5 1017.8 1017.0 0.0
15/04:00am 10.1 8.4 7.5 84 1.3 E 6 9 3 5 1017.7 1016.9 0.0
15/03:30am 10.1 8.2 7.7 85 1.2 SE 7 9 4 5 1017.9 1017.1 0.0
15/03:00am 10.3 8.0 7.5 83 1.4 SSE 9 13 5 7 1018.1 1017.3 0.0
15/02:30am 11.1 9.3 8.0 81 1.5 ESE 7 9 4 5 1018.1 1017.3 0.0
15/02:00am 11.3 9.5 8.0 80 1.6 E 7 11 4 6 1018.3 1017.5 0.0
15/01:30am 11.7 9.6 8.2 79 1.7 E 9 13 5 7 1018.5 1017.7 0.0
15/01:00am 11.9 9.8 8.4 79 1.8 E 9 13 5 7 1018.8 1018.0 0.0
15/12:30am 12.2 9.4 8.5 78 1.9 ESE 13 19 7 10 1019.2 1018.3 0.0
15/12:00am 12.5 9.7 8.4 76 2.1 E 13 20 7 11 1019.4 1018.5 0.0
 
Date/Time
WST
Temp
°C
App
Temp
°C
Dew
Point
°C
Rel
Hum
%
Delta-T
°C
Wind Press
QNH
hPa
Press
MSL
hPa
Rain since
9am
mm
Dir  Spd
km/h
Gust
km/h
Spd
kts
Gust
kts
14/11:30pm 12.8 10.0 8.5 75 2.2 E 13 19 7 10 1019.7 1018.8 0.0
14/11:00pm 13.0 9.8 8.3 73 2.4 ESE 15 20 8 11 1019.8 1018.9 0.0
14/10:30pm 13.5 10.2 8.1 70 2.7 ESE 15 22 8 12 1020.0 1019.1 0.0
14/10:00pm 14.0 9.9 8.0 67 3.0 ESE 19 28 10 15 1020.2 1019.4 0.0
14/09:30pm 14.6 10.9 7.9 64 3.4 ESE 17 24 9 13 1020.4 1019.6 0.0
14/09:00pm 15.4 11.3 7.9 61 3.8 ESE 19 30 10 16 1020.1 1019.2 0.0
14/08:30pm 16.5 12.2 8.0 57 4.4 ESE 20 28 11 15 1019.9 1019.0 0.0
14/08:00pm 17.4 13.3 8.0 54 4.8 ESE 19 33 10 18 1019.6 1018.7 0.0
14/07:30pm 18.7 14.0 7.8 49 5.7 ESE 22 33 12 18 1019.3 1018.4 0.0
14/07:00pm 19.7 15.3 7.4 45 6.4 ESE 20 30 11 16 1018.8 1018.0 0.0
14/06:30pm 21.7 16.4 6.8 38 7.7 ESE 24 35 13 19 1018.6 1017.8 0.0
14/06:00pm 23.7 18.5 5.6 31 9.3 ESE 22 33 12 18 1018.3 1017.5 0.0
14/05:30pm 26.8 25.0 3.3 22 11.8 N 2 7 1 4 1017.7 1016.9 0.0
14/05:00pm 27.0 24.3 2.8 21 12.1 S 6 9 3 5 1017.8 1017.0 0.0
14/04:30pm 27.8 25.6 3.5 21 12.3 WSW 4 7 2 4 1018.0 1017.2 0.0
14/04:00pm 27.0 23.8 2.8 21 12.1 S 9 15 5 8 1018.0 1017.2 0.0
14/03:30pm 27.5 24.8 3.9 22 12.0 WSW 7 11 4 6 1018.1 1017.3 0.0
14/03:00pm 26.5 24.4 3.7 23 11.5 E 4 9 2 5 1018.4 1017.6 0.0
14/02:30pm 26.4 24.0 4.2 24 11.3 NW 6 15 3 8 1018.8 1018.0 0.0
14/02:00pm 26.1 23.8 4.6 25 11.0 WSW 6 13 3 7 1019.3 1018.4 0.0
14/01:30pm 25.0 21.7 4.7 27 10.3 SE 11 20 6 11 1019.6 1018.7 0.0
14/01:00pm 25.0 22.9 5.7 29 10.0 NNE 6 15 3 8 1019.9 1019.0 0.0
14/12:30pm 23.7 21.4 5.6 31 9.3 ESE 7 17 4 9 1020.1 1019.2 0.0
14/12:00pm 22.1 19.6 4.7 32 8.7 ENE 7 20 4 11 1020.4 1019.6 0.0
14/11:30am 21.9 18.7 4.9 33 8.5 NE 11 24 6 13 1020.8 1020.0 0.0
14/11:00am 20.9 17.3 4.9 35 7.9 ENE 13 22 7 12 1021.2 1020.4 0.0
14/10:30am 20.3 17.0 4.8 36 7.7 ENE 11 20 6 11 1021.5 1020.7 0.0
14/10:00am 20.0 16.2 5.6 39 7.2 ENE 15 26 8 14 1021.8 1021.0 0.0
14/09:30am 18.3 14.4 5.5 43 6.3 ENE 15 24 8 13 1021.9 1021.1 0.0
14/09:00am 17.3 12.7 5.6 46 5.7 ENE 19 26 10 14 1022.1 1021.3 0.0
14/08:30am 16.1 12.0 6.0 51 5.0 E 17 26 9 14 1022.3 1021.4 0.0
14/08:00am 15.3 11.1 5.5 52 4.7 E 17 24 9 13 1022.3 1021.4 0.0
14/07:30am 14.7 10.1 5.8 55 4.3 ENE 19 24 10 13 1022.1 1021.3 0.0
14/07:00am 13.7 9.5 5.8 59 3.8 E 17 22 9 12 1021.9 1021.1 0.0
14/06:30am 13.1 8.9 5.8 61 3.5 E 17 24 9 13 1022.0 1021.2 0.0
14/06:00am 12.3 8.5 5.7 64 3.1 E 15 22 8 12 1021.9 1021.1 0.0
14/05:30am 12.2 8.4 6.0 66 3.0 ESE 15 22 8 12 1021.7 1020.9 0.0
14/05:00am 12.3 9.4 6.6 68 2.8 ESE 11 20 6 11 1021.4 1020.6 0.0
14/04:30am 12.3 8.7 6.8 69 2.7 ESE 15 20 8 11 1021.1 1020.3 0.0
14/04:00am 12.4 9.2 6.9 69 2.7 ESE 13 20 7 11 1020.8 1020.0 0.0
14/03:30am 12.5 9.4 7.2 70 2.6 SE 13 19 7 10 1021.0 1020.2 0.0
14/03:00am 12.4 8.9 7.3 71 2.5 SE 15 22 8 12 1020.7 1019.9 0.0
14/02:30am 12.4 9.0 7.5 72 2.4 SE 15 22 8 12 1020.6 1019.8 0.0
14/02:00am 12.6 9.5 7.3 70 2.6 SE 13 20 7 11 1020.8 1020.0 0.0
14/01:30am 12.8 9.4 7.5 70 2.6 SE 15 20 8 11 1020.9 1020.1 0.0
14/01:00am 13.0 10.0 7.9 71 2.5 SE 13 20 7 11 1020.9 1020.1 0.0
14/12:30am 13.0 10.1 8.1 72 2.5 SE 13 19 7 10 1021.0 1020.2 0.0
14/12:00am 13.1 9.8 8.0 71 2.6 SE 15 19 8 10 1021.1 1020.3 0.0
 
Date/Time
WST
Temp
°C
App
Temp
°C
Dew
Point
°C
Rel
Hum
%
Delta-T
°C
Wind Press
QNH
hPa
Press
MSL
hPa
Rain since
9am
mm
Dir  Spd
km/h
Gust
km/h
Spd
kts
Gust
kts
13/11:30pm 13.0 10.0 7.7 70 2.6 ESE 13 20 7 11 1021.2 1020.4 0.0
13/11:00pm 13.1 10.1 7.8 70 2.6 ESE 13 19 7 10 1021.1 1020.3 0.0
13/10:30pm 13.2 9.8 7.6 69 2.8 SE 15 20 8 11 1021.2 1020.4 0.0
13/10:00pm 13.6 11.1 8.0 69 2.8 SE 11 19 6 10 1021.1 1020.3 0.0
13/09:30pm 13.7 10.4 8.1 69 2.8 SE 15 20 8 11 1021.1 1020.3 0.0
13/09:00pm 14.7 11.2 8.6 67 3.1 SE 17 28 9 15 1020.8 1020.0 0.0
13/08:30pm 15.5 12.1 9.0 65 3.4 SSE 17 24 9 13 1020.2 1019.4 0.0
13/08:00pm 16.6 12.9 9.5 63 3.7 SSE 19 28 10 15 1019.7 1018.8 0.0
13/07:30pm 17.3 14.1 10.0 62 3.9 SSE 17 26 9 14 1019.5 1018.6 0.0
13/07:00pm 18.2 15.1 10.3 60 4.3 SSE 17 24 9 13 1019.0 1018.1 0.0
13/06:30pm 19.3 15.8 10.3 56 4.9 S 19 26 10 14 1018.2 1017.4 0.0
13/06:00pm 20.6 16.9 10.1 51 5.7 S 20 32 11 17 1017.7 1016.9 0.0

Other Formats:

Comma delimited format used in spreadsheet applications
http://www.bom.gov.au/fwo/IDW60801/IDW60801.94641.axf

JavaScript Object Notation format (JSON) in row-major order
http://www.bom.gov.au/fwo/IDW60801/IDW60801.94641.json